Time;durP1;ratioP1;P1;durP2;ratioP2;P2;SDS_P1;SDS_P2;PMS_P1;PMS_P2;Temp;Humidity;BMP_temperature;BMP_pressure;BME280_temperature;BME280_humidity;BME280_pressure;Samples;Min_cycle;Max_cycle;Signal;HPM_P1;HPM_P2
2023/01/01 00:00:05;;;;;;;162.73;94.40;;;;;;;4.53;81.47;102638.63;4997266;28;20061;-81
2023/01/01 00:02:31;;;;;;;171.05;86.10;;;;;;;4.83;81.88;102702.97;5013650;28;20025;-81
2023/01/01 00:04:56;;;;;;;172.98;86.50;;;;;;;4.69;81.06;102683.19;5013648;28;20498;-81
2023/01/01 00:07:22;;;;;;;160.85;89.68;;;;;;;4.74;81.50;102699.47;5013356;28;20049;-81
2023/01/01 00:12:32;;;;;;;142.52;80.88;;;;;;;4.76;81.17;102716.59;5015066;28;20044;-81
2023/01/01 00:14:57;;;;;;;123.13;76.38;;;;;;;4.77;81.40;102726.00;4997063;28;20025;-81
2023/01/01 00:17:23;;;;;;;135.95;71.32;;;;;;;4.71;81.54;102717.38;4996725;28;20423;-81
2023/01/01 00:19:48;;;;;;;132.95;71.25;;;;;;;4.56;81.93;102695.91;5012742;28;20049;-81
2023/01/01 00:22:14;;;;;;;130.60;75.07;;;;;;;4.65;81.62;102713.06;5029809;28;20032;-81
2023/01/01 00:24:39;;;;;;;117.28;68.70;;;;;;;4.62;81.63;102723.28;4996850;28;20025;-81
2023/01/01 00:27:04;;;;;;;154.35;72.00;;;;;;;4.59;82.16;102733.50;5013595;28;20411;-81
2023/01/01 00:29:31;;;;;;;120.88;69.45;;;;;;;4.53;81.64;102731.78;5013171;28;20057;-81
2023/01/01 00:31:56;;;;;;;109.97;68.65;;;;;;;4.57;81.29;102736.06;4996744;28;20028;-80
2023/01/01 00:34:22;;;;;;;115.72;66.30;;;;;;;4.51;81.07;102719.75;4996561;28;20030;-81
2023/01/01 00:36:47;;;;;;;130.60;65.10;;;;;;;4.47;81.21;102733.41;5013123;28;20030;-80
2023/01/01 00:39:12;;;;;;;93.43;53.83;;;;;;;4.50;81.75;102747.09;5012887;28;20100;-80
2023/01/01 00:41:38;;;;;;;78.90;44.90;;;;;;;4.48;82.10;102745.38;4996706;28;20032;-81
2023/01/01 00:44:04;;;;;;;72.50;42.00;;;;;;;4.09;82.05;102684.31;5012759;28;20419;-81
2023/01/01 00:46:29;;;;;;;73.90;43.15;;;;;;;4.39;82.41;102740.16;5029331;28;20025;-81
2023/01/01 00:48:54;;;;;;;78.78;45.35;;;;;;;4.43;81.72;102744.47;5028810;28;20029;-81
2023/01/01 00:51:20;;;;;;;82.18;41.63;;;;;;;4.38;81.78;102748.69;5012956;28;20032;-80
2023/01/01 00:53:45;;;;;;;88.07;41.85;;;;;;;4.28;82.38;102729.78;5029444;28;20033;-81
2023/01/01 00:56:11;;;;;;;79.93;43.45;;;;;;;4.37;82.24;102754.66;5030520;28;20049;-80
2023/01/01 00:58:36;;;;;;;71.68;38.30;;;;;;;4.31;82.79;102766.53;5029658;28;20034;-81
2023/01/01 01:01:02;;;;;;;94.93;48.88;;;;;;;4.09;82.29;102726.16;5012918;28;20033;-81
2023/01/01 01:03:27;;;;;;;81.80;44.13;;;;;;;4.31;81.97;102763.13;5028794;28;20044;-81
2023/01/01 01:05:58;;;;;;;66.03;42.03;;;;;;;4.37;81.93;102772.59;4996659;28;20124;-80
2023/01/01 01:08:24;;;;;;;81.57;38.88;;;;;;;4.27;82.48;102764.81;4996237;28;20026;-81
2023/01/01 01:10:49;;;;;;;69.65;41.05;;;;;;;4.28;82.51;102763.09;4996567;28;20029;-81
2023/01/01 01:13:15;;;;;;;90.93;38.70;;;;;;;4.35;82.37;102764.03;4996403;28;20941;-81
2023/01/01 01:15:40;;;;;;;52.70;34.53;;;;;;;4.25;82.05;102745.13;4996431;28;20060;-81
2023/01/01 01:18:06;;;;;;;69.57;41.05;;;;;;;4.27;81.87;102756.25;5012579;28;20041;-81
2023/01/01 01:20:31;;;;;;;73.50;35.70;;;;;;;4.27;82.36;102762.25;5028971;28;20089;-81
2023/01/01 01:22:57;;;;;;;58.72;34.22;;;;;;;4.31;82.46;102753.72;4996639;28;20037;-80
2023/01/01 01:25:22;;;;;;;51.40;30.40;;;;;;;4.00;82.31;102703.00;5016184;28;20061;-81
2023/01/01 01:27:48;;;;;;;57.65;29.38;;;;;;;4.36;82.65;102758.06;5034132;28;20032;-80
2023/01/01 01:30:13;;;;;;;50.25;26.98;;;;;;;4.31;82.61;102753.72;5016425;28;20045;-81
2023/01/01 01:32:39;;;;;;;60.08;32.63;;;;;;;4.27;83.36;102758.81;5032286;28;20088;-81
2023/01/01 01:35:04;;;;;;;55.08;33.97;;;;;;;4.25;82.72;102748.56;4999958;28;20026;-80
2023/01/01 01:37:30;;;;;;;53.65;33.22;;;;;;;3.98;82.66;102697.00;4999799;28;20033;-81
2023/01/01 01:39:55;;;;;;;54.70;32.75;;;;;;;4.23;82.12;102729.75;5032498;28;20025;-80
2023/01/01 01:42:21;;;;;;;56.67;32.25;;;;;;;4.15;81.84;102725.38;5016310;28;20049;-80
2023/01/01 01:44:49;;;;;;;61.40;36.05;;;;;;;4.24;82.94;102736.59;5032324;28;20507;-82
2023/01/01 01:47:26;;;;;;;55.45;35.15;;;;;;;4.10;82.74;102715.06;5033420;28;20029;-80
2023/01/01 01:49:58;;;;;;;58.25;31.98;;;;;;;4.05;83.06;102705.63;5032241;28;20038;-81
2023/01/01 01:52:25;;;;;;;57.72;33.33;;;;;;;4.22;83.01;102722.03;5015995;28;20087;-81
2023/01/01 01:54:51;;;;;;;66.45;33.60;;;;;;;4.22;83.16;102716.91;5015860;28;20470;-81
2023/01/01 01:57:16;;;;;;;58.70;33.47;;;;;;;4.03;82.55;102675.75;5015719;28;20029;-81
2023/01/01 01:59:44;;;;;;;71.80;38.45;;;;;;;4.21;82.67;102704.94;5048948;28;20026;-81
2023/01/01 02:02:30;;;;;;;68.45;36.42;;;;;;;3.96;83.33;102670.53;5015493;28;20033;-81
2023/01/01 02:04:56;;;;;;;52.72;34.80;;;;;;;4.05;83.27;102669.78;5016999;28;20069;-81
2023/01/01 02:07:21;;;;;;;70.10;41.17;;;;;;;4.10;83.98;102679.22;4999427;28;20059;-81
2023/01/01 02:09:47;;;;;;;59.97;37.30;;;;;;;4.09;84.00;102685.19;5015670;28;20033;-82
2023/01/01 02:12:12;;;;;;;75.95;39.20;;;;;;;4.15;84.02;102680.13;5015670;28;20551;-81
2023/01/01 02:14:38;;;;;;;66.20;39.78;;;;;;;4.25;84.29;102686.22;5015644;28;20030;-82
2023/01/01 02:17:08;;;;;;;60.78;35.90;;;;;;;4.23;84.42;102680.22;5014987;28;20071;-80
2023/01/01 02:19:43;;;;;;;61.72;36.22;;;;;;;4.22;84.57;102671.63;5031636;28;20111;-81
2023/01/01 02:22:20;;;;;;;53.53;31.45;;;;;;;4.31;84.63;102681.97;5031873;28;20388;-81
2023/01/01 02:24:59;;;;;;;54.40;34.60;;;;;;;4.34;84.29;102664.94;5016027;28;20030;-80
2023/01/01 02:27:36;;;;;;;64.50;35.78;;;;;;;4.22;84.44;102642.59;4999372;28;20021;-81
2023/01/01 02:30:06;;;;;;;52.78;31.50;;;;;;;4.12;84.40;102631.41;5031662;28;20495;-80
2023/01/01 02:32:44;;;;;;;59.38;30.48;;;;;;;4.43;84.23;102670.16;4998583;28;20411;-80
2023/01/01 02:38:09;;;;;;;55.72;33.15;;;;;;;4.48;84.43;102664.22;5031608;28;20076;-81
2023/01/01 02:40:37;;;;;;;37.15;26.40;;;;;;;4.55;84.42;102676.25;5016367;28;20064;-81
2023/01/01 02:43:02;;;;;;;50.75;28.42;;;;;;;4.51;84.02;102664.22;5015023;28;20469;-80
2023/01/01 02:45:28;;;;;;;42.15;27.70;;;;;;;4.55;83.44;102670.25;4998388;28;20029;-80
2023/01/01 02:47:53;;;;;;;60.33;34.88;;;;;;;4.40;83.08;102639.34;5015122;28;20132;-81
2023/01/01 02:50:21;;;;;;;57.40;36.15;;;;;;;4.40;82.84;102639.34;5031555;28;20083;-81
2023/01/01 02:53:06;;;;;;;56.67;33.90;;;;;;;4.47;82.81;102657.38;4998695;28;20028;-81
2023/01/01 02:55:53;;;;;;;53.50;28.95;;;;;;;4.43;82.51;102660.75;5032836;28;20040;-81
2023/01/01 03:01:28;;;;;;;48.17;27.65;;;;;;;4.45;82.88;102650.53;5030932;28;20567;-81
2023/01/01 03:04:04;;;;;;;49.63;28.50;;;;;;;4.35;83.07;102644.47;5031490;28;20029;-80
2023/01/01 03:06:36;;;;;;;50.70;28.90;;;;;;;4.29;82.21;102641.81;5031201;28;20076;-81
2023/01/01 03:09:26;;;;;;;53.53;28.50;;;;;;;4.35;82.24;102653.84;5031868;28;20021;-81
2023/01/01 03:12:10;;;;;;;47.38;29.90;;;;;;;4.29;83.28;102652.06;5014528;28;20030;-81
2023/01/01 03:14:41;;;;;;;46.15;29.38;;;;;;;4.40;82.61;102645.34;5031664;28;20057;-80
2023/01/01 03:17:26;;;;;;;52.72;31.27;;;;;;;4.23;82.67;102627.28;5031016;28;20960;-81
2023/01/01 03:19:52;;;;;;;56.33;31.52;;;;;;;4.29;82.83;102641.81;5000195;28;20495;-81
2023/01/01 03:22:18;;;;;;;58.92;32.55;;;;;;;4.31;82.56;102646.09;5014431;28;20025;-81
2023/01/01 03:24:50;;;;;;;55.70;32.20;;;;;;;4.10;82.55;102620.28;5014086;28;20510;-81
2023/01/01 03:27:52;;;;;;;56.28;34.17;;;;;;;4.21;82.52;102653.69;5030783;28;20021;-81
2023/01/01 03:30:18;;;;;;;49.72;32.28;;;;;;;4.18;82.96;102646.84;4982493;28;20041;-81
2023/01/01 03:32:59;;;;;;;63.03;30.55;;;;;;;3.94;82.89;102611.63;5014540;28;20447;-82
2023/01/01 03:35:49;;;;;;;58.58;30.45;;;;;;;4.19;83.06;102651.13;5015182;28;20040;-81
2023/01/01 03:38:45;;;;;;;53.33;31.45;;;;;;;4.19;82.61;102656.25;5014022;28;20510;-81
2023/01/01 03:41:34;;;;;;;42.30;26.50;;;;;;;4.18;82.62;102664.78;5030170;28;20029;-81
2023/01/01 03:44:10;;;;;;;52.55;35.38;;;;;;;4.13;82.61;102655.31;5027878;28;20095;-80
2023/01/01 03:46:35;;;;;;;50.65;29.42;;;;;;;4.01;82.19;102639.00;5030596;28;20487;-80
2023/01/01 03:49:01;;;;;;;54.45;30.45;;;;;;;3.88;82.05;102618.38;5013728;28;20040;-80
2023/01/01 03:51:57;;;;;;;44.03;26.40;;;;;;;4.18;82.33;102669.06;4997469;28;20479;-80
2023/01/01 03:54:48;;;;;;;40.50;26.02;;;;;;;4.12;82.44;102667.28;5030241;28;20116;-80
2023/01/01 03:57:19;;;;;;;35.28;22.02;;;;;;;4.10;83.47;102675.78;5029842;28;20498;-82
2023/01/01 03:59:52;;;;;;;38.47;23.15;;;;;;;4.00;84.09;102659.47;5029911;28;20104;-81
2023/01/01 04:02:19;;;;;;;36.00;23.92;;;;;;;4.04;83.77;102671.47;5013645;28;20033;-81
2023/01/01 04:04:46;;;;;;;49.45;22.30;;;;;;;4.06;83.14;102684.31;5013738;28;20029;-81
2023/01/01 04:07:12;;;;;;;29.17;18.95;;;;;;;3.99;82.87;102678.25;5013749;28;20061;-80
2023/01/01 04:09:37;;;;;;;37.08;19.08;;;;;;;3.93;82.80;102673.94;5013354;28;20148;-81
2023/01/01 04:12:03;;;;;;;33.35;17.85;;;;;;;3.63;83.25;102636.00;4996786;28;20029;-80
2023/01/01 04:14:30;;;;;;;35.42;18.60;;;;;;;3.92;83.17;102671.31;5013541;28;20126;-81
2023/01/01 04:16:56;;;;;;;40.40;19.67;;;;;;;3.88;82.84;102661.91;5029810;28;20022;-82
2023/01/01 04:19:21;;;;;;;37.55;17.23;;;;;;;4.08;82.95;102692.84;5013456;28;20048;-81
2023/01/01 04:21:47;;;;;;;23.30;17.40;;;;;;;4.01;82.88;102679.09;5031022;28;20021;-81
2023/01/01 04:24:13;;;;;;;27.02;14.63;;;;;;;4.05;82.67;102703.94;5029821;28;20499;-82
2023/01/01 04:26:39;;;;;;;25.80;16.40;;;;;;;4.03;82.67;102706.47;5013193;28;20064;-80
2023/01/01 04:29:04;;;;;;;29.00;18.83;;;;;;;4.01;83.30;102708.13;5013146;28;20029;-81
2023/01/01 04:31:30;;;;;;;29.15;16.58;;;;;;;3.89;82.59;102689.22;5013016;28;20028;-81
2023/01/01 04:33:55;;;;;;;27.50;16.15;;;;;;;3.92;82.35;102712.28;5013252;28;20487;-80
2023/01/01 04:36:21;;;;;;;40.45;20.08;;;;;;;3.76;82.53;102695.06;5030462;28;20111;-81
2023/01/01 04:38:46;;;;;;;24.45;16.02;;;;;;;3.84;83.32;102719.06;5013072;28;20030;-80
2023/01/01 04:41:12;;;;;;;33.80;16.85;;;;;;;3.79;83.60;102724.09;5046198;28;20033;-81
2023/01/01 04:43:37;;;;;;;29.10;18.50;;;;;;;3.86;83.15;102719.91;5029518;28;20113;-81
2023/01/01 04:46:03;;;;;;;35.72;19.65;;;;;;;3.93;82.41;102737.06;5012809;28;20037;-81
2023/01/01 04:48:29;;;;;;;31.55;20.05;;;;;;;3.87;82.58;102729.31;4996740;28;20037;-80
2023/01/01 04:51:05;;;;;;;28.27;16.55;;;;;;;3.91;82.42;102724.25;4996704;28;20041;-80
2023/01/01 04:53:32;;;;;;;23.63;17.27;;;;;;;3.95;81.79;102717.47;4997632;28;20033;-80
2023/01/01 04:56:04;;;;;;;30.60;19.70;;;;;;;3.83;81.72;102701.94;5012495;28;20406;-81
2023/01/01 04:58:31;;;;;;;54.20;23.33;;;;;;;3.76;81.70;102712.97;5030705;28;20030;-81
2023/01/01 05:00:56;;;;;;;28.58;17.08;;;;;;;3.83;82.11;102728.41;5033517;28;20068;-80
2023/01/01 05:03:22;;;;;;;29.15;18.90;;;;;;;3.77;82.40;102727.50;5000588;28;20033;-81
2023/01/01 05:05:49;;;;;;;37.83;18.50;;;;;;;3.75;82.15;102724.91;5034885;28;20037;-82
2023/01/01 05:08:14;;;;;;;43.20;18.38;;;;;;;3.80;82.13;102732.63;5032919;28;20025;-82
2023/01/01 05:10:40;;;;;;;32.28;18.73;;;;;;;3.78;82.28;102724.09;5016272;28;20039;-81
2023/01/01 05:13:07;;;;;;;31.45;17.23;;;;;;;3.77;81.82;102714.69;5033558;28;20037;-81
2023/01/01 05:15:35;;;;;;;37.17;16.90;;;;;;;3.81;82.01;102724.09;5017007;28;20029;-80
2023/01/01 05:18:00;;;;;;;25.65;15.77;;;;;;;3.79;82.22;102718.13;5016825;28;20033;-81
2023/01/01 05:20:26;;;;;;;27.77;17.85;;;;;;;3.60;81.87;102699.97;5032955;28;20119;-80
2023/01/01 05:22:51;;;;;;;38.22;19.05;;;;;;;3.41;82.07;102673.28;5016577;28;20026;-81
2023/01/01 05:25:17;;;;;;;31.00;15.98;;;;;;;3.77;81.81;102730.91;5032494;28;20548;-82
2023/01/01 05:27:42;;;;;;;29.75;16.38;;;;;;;3.67;81.19;102726.50;5033024;28;20025;-81
2023/01/01 05:30:08;;;;;;;39.47;18.42;;;;;;;3.55;81.78;102696.50;5033081;28;20044;-81
2023/01/01 05:32:35;;;;;;;41.40;18.83;;;;;;;3.76;82.61;102743.69;5032904;28;20514;-80
2023/01/01 05:35:01;;;;;;;26.92;16.45;;;;;;;3.65;82.76;102731.63;5000081;28;20037;-80
2023/01/01 05:37:26;;;;;;;25.20;17.40;;;;;;;3.56;82.39;102705.91;5016365;28;20472;-82
2023/01/01 05:39:52;;;;;;;32.45;16.85;;;;;;;3.76;82.01;102733.44;5032563;28;20088;-80
2023/01/01 05:42:18;;;;;;;26.83;18.17;;;;;;;3.74;82.34;102736.84;4999909;28;20021;-82
2023/01/01 05:44:44;;;;;;;32.58;20.08;;;;;;;3.72;83.13;102729.97;5032670;28;20022;-80
2023/01/01 05:47:10;;;;;;;28.67;17.70;;;;;;;3.82;83.09;102733.50;5032941;28;20128;-80
2023/01/01 05:49:35;;;;;;;34.20;21.00;;;;;;;3.68;82.68;102708.59;5032499;28;20054;-81
2023/01/01 05:52:01;;;;;;;31.02;17.73;;;;;;;3.79;82.73;102713.84;5016041;28;20037;-80
2023/01/01 05:54:26;;;;;;;30.05;18.48;;;;;;;3.85;81.99;102721.63;5015748;28;20022;-80
2023/01/01 05:56:52;;;;;;;29.25;15.95;;;;;;;3.94;81.53;102731.13;5015730;28;20029;-80
2023/01/01 05:59:17;;;;;;;27.83;20.88;;;;;;;3.93;81.51;102721.69;5032165;28;20514;-81
2023/01/01 06:01:42;;;;;;;30.33;19.08;;;;;;;3.87;81.25;102721.63;4999510;28;20029;-80
2023/01/01 06:04:08;;;;;;;33.47;18.85;;;;;;;3.72;81.61;102697.56;5032044;28;20056;-81
2023/01/01 06:06:33;;;;;;;46.38;21.10;;;;;;;3.81;81.59;102709.59;5032022;28;20454;-81
2023/01/01 06:09:00;;;;;;;28.42;19.40;;;;;;;3.60;82.75;102687.16;5015440;28;20044;-80
2023/01/01 06:11:26;;;;;;;26.65;18.73;;;;;;;3.85;83.06;102716.50;5014802;28;20036;-81
2023/01/01 06:13:52;;;;;;;26.75;20.42;;;;;;;3.85;83.10;102725.88;5016009;28;20076;-81
2023/01/01 06:16:18;;;;;;;26.67;18.60;;;;;;;3.86;82.87;102730.16;5015717;28;20033;-80
2023/01/01 06:18:43;;;;;;;45.72;21.20;;;;;;;3.76;83.18;102715.53;5015719;28;20057;-81
2023/01/01 06:21:11;;;;;;;24.42;16.05;;;;;;;3.91;82.92;102741.31;4999172;28;20537;-80
2023/01/01 06:23:36;;;;;;;39.28;19.35;;;;;;;3.93;83.08;102743.06;5015132;28;20509;-81
2023/01/01 06:26:12;;;;;;;28.38;17.17;;;;;;;3.91;82.90;102737.03;5015252;28;20034;-81
2023/01/01 06:28:38;;;;;;;37.78;18.23;;;;;;;4.01;83.01;102754.25;5016387;28;20036;-81
2023/01/01 06:31:04;;;;;;;34.60;18.50;;;;;;;4.07;83.18;102755.16;5015128;28;20034;-80
2023/01/01 06:33:30;;;;;;;28.45;17.08;;;;;;;3.75;82.67;102696.75;5031771;28;20116;-81
2023/01/01 06:35:55;;;;;;;29.15;18.13;;;;;;;4.07;82.46;102747.50;5031744;28;20033;-81
2023/01/01 06:38:21;;;;;;;26.35;18.00;;;;;;;4.11;82.42;102759.47;5031365;28;20087;-82
2023/01/01 06:41:00;;;;;;;35.60;20.63;;;;;;;4.10;82.65;102757.75;5014991;28;20033;-82
2023/01/01 06:43:26;;;;;;;27.80;18.85;;;;;;;4.11;82.53;102759.47;4998906;28;20033;-81
2023/01/01 06:46:18;;;;;;;31.27;17.20;;;;;;;3.96;83.00;102714.06;4998751;28;20029;-82
2023/01/01 06:48:44;;;;;;;26.45;17.50;;;;;;;4.06;82.44;102741.50;5035345;28;20069;-80
2023/01/01 06:51:12;;;;;;;34.03;18.42;;;;;;;4.12;82.75;102762.06;5014787;28;20048;-80
2023/01/01 06:53:37;;;;;;;34.22;19.42;;;;;;;4.09;82.87;102749.22;5015072;28;20060;-80
2023/01/01 06:56:03;;;;;;;46.35;21.85;;;;;;;4.14;82.95;102757.84;4998543;28;20099;-81
2023/01/01 06:58:29;;;;;;;32.40;18.95;;;;;;;4.12;83.45;102756.94;5014958;28;20033;-80
2023/01/01 07:01:20;;;;;;;29.33;19.85;;;;;;;4.19;83.23;102750.19;5031330;28;20033;-81
2023/01/01 07:03:56;;;;;;;34.88;20.45;;;;;;;4.20;83.68;102749.34;5017100;28;20060;-81
2023/01/01 07:06:22;;;;;;;27.52;16.80;;;;;;;4.25;83.54;102763.94;5014924;28;20083;-81
2023/01/01 07:08:47;;;;;;;27.42;16.60;;;;;;;4.34;83.37;102768.31;5030788;28;20029;-80
2023/01/01 07:11:13;;;;;;;32.05;18.88;;;;;;;4.30;83.83;102757.13;5014706;28;20032;-81
2023/01/01 07:13:38;;;;;;;29.17;17.77;;;;;;;4.45;84.31;102766.72;5014395;28;20025;-80
2023/01/01 07:16:05;;;;;;;30.20;17.42;;;;;;;4.56;83.81;102769.38;5014615;28;20033;-81
2023/01/01 07:18:31;;;;;;;24.20;17.25;;;;;;;4.62;83.91;102774.56;5014296;28;20570;-81
2023/01/01 07:21:00;;;;;;;26.55;19.30;;;;;;;4.68;83.60;102779.75;4997435;28;20040;-80
2023/01/01 07:23:27;;;;;;;29.77;15.32;;;;;;;4.73;83.40;102767.00;5014537;28;20076;-80
2023/01/01 07:25:53;;;;;;;27.85;15.70;;;;;;;4.74;83.27;102768.72;5014460;28;20018;-82
2023/01/01 07:28:18;;;;;;;30.90;18.92;;;;;;;4.80;82.94;102779.88;5014381;28;20029;-82
2023/01/01 07:30:44;;;;;;;30.77;18.55;;;;;;;4.70;82.89;102760.09;5014246;28;20029;-81
2023/01/01 07:33:16;;;;;;;25.60;15.07;;;;;;;4.83;82.72;102777.34;5030675;28;20487;-82
2023/01/01 07:35:43;;;;;;;31.65;19.08;;;;;;;4.81;83.00;102766.19;4997970;28;20041;-81
2023/01/01 07:38:09;;;;;;;23.35;15.52;;;;;;;4.92;82.73;102768.00;5030541;28;20061;-82
2023/01/01 07:40:34;;;;;;;30.90;18.63;;;;;;;4.99;82.33;102770.63;4997767;28;20060;-80
2023/01/01 07:43:00;;;;;;;35.40;17.63;;;;;;;5.06;82.25;102779.25;4997697;28;20029;-81
2023/01/01 07:45:25;;;;;;;38.97;19.08;;;;;;;5.15;81.63;102780.19;4997632;28;20077;-81
2023/01/01 07:47:55;;;;;;;27.77;18.25;;;;;;;5.17;81.55;102769.91;5014052;28;20083;-80
2023/01/01 07:50:20;;;;;;;32.20;18.00;;;;;;;5.29;80.99;102785.41;5013405;28;20491;-81
2023/01/01 07:52:46;;;;;;;24.58;16.30;;;;;;;5.27;80.53;102771.72;5013723;28;20032;-81
2023/01/01 07:55:15;;;;;;;29.17;15.77;;;;;;;5.32;80.61;102767.47;5013682;28;20030;-81
2023/01/01 07:57:41;;;;;;;26.40;16.98;;;;;;;5.43;80.28;102781.25;5013561;28;20029;-81
2023/01/01 08:00:08;;;;;;;24.90;16.05;;;;;;;5.48;79.98;102787.25;5013899;28;20022;-81
2023/01/01 08:02:33;;;;;;;37.40;20.38;;;;;;;5.31;79.94;102750.38;5013756;28;20034;-81
2023/01/01 08:04:59;;;;;;;29.73;17.77;;;;;;;5.38;80.07;102759.81;5013501;28;20084;-81
2023/01/01 08:07:24;;;;;;;24.58;17.60;;;;;;;5.56;80.32;102787.31;5013634;28;20516;-81
2023/01/01 08:09:50;;;;;;;34.72;19.27;;;;;;;5.66;80.18;102795.94;5013252;28;20037;-81
2023/01/01 08:12:15;;;;;;;26.88;14.75;;;;;;;5.73;79.96;102792.56;4997086;28;20407;-81
2023/01/01 08:14:41;;;;;;;28.20;16.88;;;;;;;5.73;79.51;102784.84;5013413;28;20029;-81
2023/01/01 08:17:06;;;;;;;38.55;24.60;;;;;;;5.66;79.56;102765.09;5029750;28;20030;-80
2023/01/01 08:19:32;;;;;;;32.45;19.45;;;;;;;5.84;79.97;102785.75;5012856;28;20061;-81
2023/01/01 08:21:57;;;;;;;29.23;19.38;;;;;;;5.95;79.57;102793.53;4996967;28;20492;-81
2023/01/01 08:24:23;;;;;;;31.13;20.02;;;;;;;5.97;79.85;102782.41;5031010;28;20483;-81
2023/01/01 08:26:49;;;;;;;25.92;18.50;;;;;;;6.08;79.52;102774.75;5029528;28;20037;-81
2023/01/01 08:29:14;;;;;;;27.85;18.42;;;;;;;6.26;78.95;102789.38;5029466;28;20506;-81
2023/01/01 08:31:40;;;;;;;37.88;19.08;;;;;;;6.44;78.44;102802.31;5013231;28;20049;-81
2023/01/01 08:34:05;;;;;;;34.47;19.52;;;;;;;6.39;77.24;102762.88;5012065;28;20079;-81
2023/01/01 08:36:31;;;;;;;42.00;21.88;;;;;;;6.60;77.01;102791.22;5046152;28;20030;-81
2023/01/01 08:38:57;;;;;;;29.45;19.42;;;;;;;6.55;76.67;102780.03;5013435;28;20103;-81
2023/01/01 08:41:22;;;;;;;37.65;22.45;;;;;;;6.72;77.40;102798.09;5013365;28;20030;-80
2023/01/01 08:43:48;;;;;;;26.58;18.33;;;;;;;6.70;77.01;102775.81;5012798;28;20041;-82
2023/01/01 08:46:13;;;;;;;43.97;24.90;;;;;;;6.90;76.55;102795.53;5029491;28;20483;-80
2023/01/01 08:48:39;;;;;;;28.73;17.38;;;;;;;6.91;76.29;102783.53;5029485;28;20064;-81
2023/01/01 08:51:04;;;;;;;32.20;18.65;;;;;;;7.12;75.32;102793.84;5012994;28;20029;-81
2023/01/01 08:53:31;;;;;;;22.95;14.88;;;;;;;7.17;75.27;102789.53;5029068;28;20517;-81
2023/01/01 08:56:09;;;;;;;21.83;13.88;;;;;;;7.28;74.50;102796.41;5013171;28;20036;-81
2023/01/01 08:58:35;;;;;;;23.33;14.07;;;;;;;7.36;74.47;102807.53;5014285;28;20026;-81
2023/01/01 09:01:01;;;;;;;24.30;15.13;;;;;;;7.35;74.55;102808.41;5013360;28;20116;-81
2023/01/01 09:03:27;;;;;;;22.52;13.60;;;;;;;7.38;73.91;102796.41;5012662;28;20495;-83
2023/01/01 09:05:52;;;;;;;16.73;12.75;;;;;;;7.40;73.97;102791.25;5029028;28;20036;-81
2023/01/01 09:08:18;;;;;;;26.60;16.20;;;;;;;7.29;74.21;102757.78;5028879;28;20034;-81
2023/01/01 09:10:44;;;;;;;18.08;13.35;;;;;;;7.51;74.76;102784.34;4996496;28;20052;-80
2023/01/01 09:13:13;;;;;;;36.97;15.90;;;;;;;7.59;74.21;102767.16;5012600;28;20513;-80
2023/01/01 09:15:39;;;;;;;30.23;17.85;;;;;;;7.65;75.15;102772.28;5013053;28;20033;-80
2023/01/01 09:18:05;;;;;;;35.95;21.33;;;;;;;7.65;75.06;102746.53;5028941;28;20033;-80
2023/01/01 09:20:30;;;;;;;29.63;15.48;;;;;;;7.77;74.44;102743.06;5029015;28;20081;-81
2023/01/01 09:22:56;;;;;;;51.65;22.90;;;;;;;8.08;74.13;102772.16;5028951;28;20037;-80
2023/01/01 09:25:21;;;;;;;23.83;15.68;;;;;;;8.03;74.25;102751.53;5012675;28;20056;-81
2023/01/01 09:27:46;;;;;;;34.05;17.92;;;;;;;8.23;74.75;102772.06;5029254;28;20442;-81
2023/01/01 09:30:13;;;;;;;26.00;17.90;;;;;;;8.32;74.19;102760.84;4996473;28;20050;-81
2023/01/01 09:32:39;;;;;;;29.95;16.38;;;;;;;8.42;74.01;102764.28;5028813;28;20032;-82
2023/01/01 09:35:05;;;;;;;27.05;16.80;;;;;;;8.47;74.12;102765.97;5030244;28;20388;-81
2023/01/01 09:37:30;;;;;;;26.83;14.07;;;;;;;8.27;74.08;102716.19;5012736;28;20502;-81
2023/01/01 09:39:56;;;;;;;22.88;13.48;;;;;;;8.70;73.65;102768.38;5045548;28;20053;-80
2023/01/01 09:42:50;;;;;;;24.63;13.30;;;;;;;8.74;73.79;102754.59;5012423;28;20018;-81
2023/01/01 09:45:32;;;;;;;17.67;11.38;;;;;;;9.00;73.33;102769.03;5030586;28;20026;-81
2023/01/01 09:48:01;;;;;;;15.77;8.43;;;;;;;9.17;72.26;102768.00;5016027;28;20036;-82
2023/01/01 09:50:32;;;;;;;15.75;10.43;;;;;;;9.22;72.55;102755.03;4999900;28;20083;-80
2023/01/01 09:53:03;;;;;;;18.98;10.20;;;;;;;9.22;72.07;102742.13;5016515;28;20079;-81
2023/01/01 09:55:57;;;;;;;22.70;13.90;;;;;;;9.46;71.44;102762.56;5015941;28;20041;-81
2023/01/01 09:58:41;;;;;;;19.17;12.85;;;;;;;9.42;70.65;102724.69;5015799;28;20022;-81
2023/01/01 10:01:18;;;;;;;19.30;11.27;;;;;;;9.73;70.86;102755.38;4999170;28;20021;-81
2023/01/01 10:03:50;;;;;;;21.10;11.82;;;;;;;9.85;70.11;102755.25;5033307;28;20040;-81
2023/01/01 10:06:24;;;;;;;24.17;12.87;;;;;;;9.92;70.31;102750.84;5016288;28;20041;-81
2023/01/01 10:09:12;;;;;;;19.25;11.68;;;;;;;9.99;70.01;102727.47;4999517;28;20389;-81
2023/01/01 10:11:40;;;;;;;29.20;13.70;;;;;;;10.12;69.75;102737.66;5030173;28;20052;-80
2023/01/01 10:14:15;;;;;;;27.55;13.52;;;;;;;10.06;68.80;102708.44;5032087;28;20073;-81
2023/01/01 10:16:42;;;;;;;28.90;15.85;;;;;;;10.25;68.93;102721.16;5016268;28;20033;-81
2023/01/01 10:19:19;;;;;;;26.17;14.15;;;;;;;10.34;69.88;102726.19;5015422;28;20045;-81
2023/01/01 10:21:45;;;;;;;29.20;13.23;;;;;;;10.22;68.81;102687.53;5015498;28;20048;-82
2023/01/01 10:24:36;;;;;;;23.83;13.02;;;;;;;10.52;68.17;102725.91;4999137;28;20503;-81
2023/01/01 10:27:03;;;;;;;24.50;15.15;;;;;;;10.60;67.73;102726.63;5024297;28;20036;-81
2023/01/01 10:29:39;;;;;;;30.00;14.18;;;;;;;10.61;68.10;102699.88;5015214;28;20734;-81
2023/01/01 10:32:18;;;;;;;33.08;16.30;;;;;;;10.80;68.47;102712.50;5015768;28;20091;-81
2023/01/01 10:34:44;;;;;;;23.17;14.50;;;;;;;10.94;67.07;102710.56;4999213;28;20422;-81
2023/01/01 10:37:09;;;;;;;27.85;15.30;;;;;;;10.79;66.57;102675.41;5015033;28;20033;-82
2023/01/01 10:39:35;;;;;;;26.88;13.68;;;;;;;11.09;66.61;102699.91;5014984;28;20022;-81
2023/01/01 10:42:00;;;;;;;25.85;14.55;;;;;;;10.90;66.43;102645.00;4998547;28;20022;-81
2023/01/01 10:44:28;;;;;;;27.95;12.48;;;;;;;11.26;66.39;102678.03;5015015;28;20529;-82
2023/01/01 10:46:56;;;;;;;32.67;13.75;;;;;;;11.39;66.17;102689.84;5031584;28;20034;-81
2023/01/01 10:49:22;;;;;;;21.88;11.75;;;;;;;11.58;65.64;102696.38;4998731;28;20040;-81
2023/01/01 10:51:51;;;;;;;23.08;12.13;;;;;;;11.71;64.87;102690.09;5014935;28;20479;-81
2023/01/01 10:54:32;;;;;;;19.38;11.30;;;;;;;11.73;65.21;102682.25;4998902;28;20021;-81
2023/01/01 10:56:58;;;;;;;22.60;12.05;;;;;;;11.80;64.77;102680.41;5031664;28;20032;-79
2023/01/01 10:59:38;;;;;;;19.55;10.05;;;;;;;11.92;64.63;102680.16;5014254;28;20029;-79
2023/01/01 11:02:12;;;;;;;19.00;10.05;;;;;;;12.09;63.67;102661.59;5031586;28;20033;-81
2023/01/01 11:04:38;;;;;;;15.00;9.60;;;;;;;12.06;63.60;102654.75;5031210;28;20025;-81
2023/01/01 11:07:05;;;;;;;19.77;8.25;;;;;;;12.27;62.66;102658.59;4998359;28;20037;-80
2023/01/01 11:09:30;;;;;;;18.55;8.75;;;;;;;12.45;62.25;102659.91;5014121;28;20033;-81
2023/01/01 11:12:03;;;;;;;17.08;9.43;;;;;;;12.37;61.92;102623.75;5014961;28;20509;-82
2023/01/01 11:14:37;;;;;;;21.02;11.27;;;;;;;12.26;61.26;102611.03;5030708;28;20067;-81
2023/01/01 11:17:02;;;;;;;16.08;8.45;;;;;;;12.63;61.44;102655.09;4998672;28;20034;-83
2023/01/01 11:19:28;;;;;;;16.15;7.97;;;;;;;12.75;60.47;102648.75;5014313;28;20404;-81
2023/01/01 11:21:54;;;;;;;12.48;6.78;;;;;;;12.87;59.88;102643.22;5030632;28;20462;-84
2023/01/01 11:24:25;;;;;;;15.50;8.80;;;;;;;12.97;59.76;102625.63;5031132;28;20105;-82
2023/01/01 11:26:51;;;;;;;21.98;9.93;;;;;;;13.08;59.50;102622.78;5014059;28;20487;-81
2023/01/01 11:29:25;;;;;;;17.83;9.57;;;;;;;12.90;60.15;102588.59;5030476;28;20083;-81
2023/01/01 11:31:51;;;;;;;18.30;8.25;;;;;;;13.25;59.75;102640.50;5014172;28;20406;-80